Pearlhaven, Mississippi
Current Conditions -  °F | °C
As of 12:06 PM on Monday 22 Dec 2014 (Local Time) from KMCB Reporting Station
Haze Haze  
Wind Chill: 64°   Ceiling: 500
Heat Index: 64°   Visibility: 6mi
Dew Point: 61°   Wind: 6mph
Humidity: 90%   Direction: 160°SSE
Pressure: 29.75"   Gusts: NA
Location:  31.5898°N, 90.4722°W
Report Text: KMCB 221806Z AUTO 16005KT 6SM BR OVC005 18/16 A2975 RMK AO2 T01780161
Loading
Personal Weather Stations






























Interactive Weather Map New forecast layout! Learn more

10-Day Weather Forecast

Advertisements
Track Severe Weather on mobile